createdAt,value
2022-10-04T00:02:02.961Z,77.59
2022-10-04T00:07:17.367Z,77.94
2022-10-04T00:12:31.564Z,78.04
2022-10-04T00:17:37.198Z,78.44
2022-10-04T00:22:45.718Z,78.68
2022-10-04T00:28:17.612Z,78.91
2022-10-04T00:33:41.925Z,79.14
2022-10-04T00:38:50.403Z,79.54
2022-10-04T00:43:58.532Z,79.70
2022-10-04T00:49:06.972Z,79.71
2022-10-04T00:54:21.252Z,80.22
2022-10-04T00:59:44.926Z,80.39
2022-10-04T01:04:56.347Z,80.67
2022-10-04T01:10:05.646Z,81.10
2022-10-04T01:15:29.278Z,81.33
2022-10-04T01:20:37.726Z,81.55
2022-10-04T01:25:48.543Z,81.83
2022-10-04T01:30:54.636Z,82.10
2022-10-04T01:36:00.185Z,82.46
2022-10-04T01:41:08.722Z,82.53
2022-10-04T01:46:17.350Z,82.74
2022-10-04T01:51:28.669Z,82.71
2022-10-04T01:56:37.172Z,82.83
2022-10-04T02:01:51.419Z,83.11
2022-10-04T02:06:59.475Z,83.45
2022-10-04T02:12:06.260Z,83.54
2022-10-04T02:17:14.182Z,83.72
2022-10-04T02:22:20.124Z,83.85
2022-10-04T02:27:31.486Z,83.99
2022-10-04T02:32:57.240Z,84.06
2022-10-04T02:38:11.650Z,84.27
2022-10-04T02:43:20.095Z,84.55
2022-10-04T02:48:36.887Z,84.73
2022-10-04T02:54:03.612Z,84.95
2022-10-04T02:59:10.672Z,84.99
2022-10-04T03:04:16.354Z,85.35
2022-10-04T03:09:29.462Z,85.47
2022-10-04T03:14:32.569Z,85.50
2022-10-04T03:19:38.970Z,85.84
2022-10-04T03:24:50.123Z,86.09
2022-10-04T03:29:59.281Z,86.11
2022-10-04T03:35:07.699Z,86.06
2022-10-04T03:40:15.611Z,86.05
2022-10-04T03:45:23.617Z,86.05
2022-10-04T03:50:33.764Z,86.66
2022-10-04T03:55:43.741Z,86.45
2022-10-04T04:01:14.955Z,86.17
2022-10-04T04:06:22.093Z,86.08
2022-10-04T04:11:29.327Z,86.20
2022-10-04T04:16:35.508Z,86.29
2022-10-04T04:21:43.143Z,86.19
2022-10-04T04:26:53.108Z,86.14
2022-10-04T04:32:04.227Z,86.14
2022-10-04T04:37:11.814Z,86.42
2022-10-04T04:42:27.684Z,86.68
2022-10-04T04:47:42.113Z,86.85
2022-10-04T04:52:56.459Z,87.16
2022-10-04T04:58:02.451Z,86.81
2022-10-04T05:03:11.881Z,86.69
2022-10-04T05:08:28.059Z,86.78
2022-10-04T05:13:42.387Z,86.79
2022-10-04T05:18:48.702Z,85.63
2022-10-04T05:23:56.281Z,86.15
2022-10-04T05:29:04.775Z,86.00
2022-10-04T05:34:28.444Z,86.50
2022-10-04T05:39:54.844Z,86.37
2022-10-04T05:45:01.555Z,85.90
2022-10-04T05:50:07.331Z,85.90
2022-10-04T05:55:31.318Z,85.74
2022-10-04T06:00:42.684Z,85.53
2022-10-04T06:05:57.699Z,85.80
2022-10-04T06:11:25.834Z,85.53
2022-10-04T06:16:55.594Z,85.48
2022-10-04T06:22:09.611Z,85.27
2022-10-04T06:27:23.845Z,85.17
2022-10-04T06:32:41.119Z,84.73
2022-10-04T06:38:10.797Z,84.76
2022-10-04T06:43:25.121Z,84.65
2022-10-04T06:48:56.654Z,84.68
2022-10-04T06:54:10.804Z,85.08
2022-10-04T06:59:27.914Z,84.61
2022-10-04T07:10:11.909Z,84.60
2022-10-04T07:15:29.417Z,84.00
2022-10-04T07:20:37.709Z,84.17
2022-10-04T07:25:52.523Z,83.22
2022-10-04T07:31:02.684Z,83.07
2022-10-04T07:36:28.828Z,83.04
2022-10-04T07:41:37.360Z,82.28
2022-10-04T07:46:57.422Z,82.77
2022-10-04T07:52:18.562Z,81.12
2022-10-04T07:57:31.186Z,81.44
2022-10-04T08:02:48.569Z,81.18
2022-10-04T08:08:21.331Z,80.73
2022-10-04T08:13:38.931Z,80.26
2022-10-04T08:19:20.655Z,79.60
2022-10-04T08:24:43.952Z,78.41
2022-10-04T08:29:55.548Z,78.38
2022-10-04T08:35:14.864Z,78.63
2022-10-04T08:40:38.609Z,77.29
2022-10-04T08:46:09.755Z,77.17
2022-10-04T08:51:42.136Z,76.77
2022-10-04T08:57:16.686Z,76.11
2022-10-04T09:02:37.586Z,75.12
2022-10-04T09:08:00.929Z,74.63
2022-10-04T09:13:31.430Z,75.27
2022-10-04T09:19:00.141Z,73.47
2022-10-04T09:24:14.423Z,73.83
2022-10-04T09:29:54.479Z,72.41
2022-10-04T09:35:06.585Z,71.21
2022-10-04T09:40:34.844Z,72.11
2022-10-04T09:45:49.157Z,71.29
2022-10-04T09:51:13.217Z,71.05
2022-10-04T09:56:47.353Z,69.87
2022-10-04T10:02:31.989Z,70.77
2022-10-04T10:07:56.856Z,69.14
2022-10-04T10:13:12.563Z,68.30
2022-10-04T10:18:23.620Z,67.62
2022-10-04T10:23:56.122Z,67.09
2022-10-04T10:29:38.016Z,67.82
2022-10-04T10:34:56.203Z,66.76
2022-10-04T10:40:38.008Z,67.93
2022-10-04T10:46:07.023Z,66.96
2022-10-04T10:51:27.984Z,65.84
2022-10-04T10:57:06.636Z,65.18
2022-10-04T11:02:49.527Z,65.05
2022-10-04T11:08:23.426Z,65.54
2022-10-04T11:13:42.697Z,64.85
2022-10-04T11:19:18.603Z,65.11
2022-10-04T11:25:00.174Z,64.58
2022-10-04T11:30:26.731Z,63.83
2022-10-04T11:35:55.632Z,64.45
2022-10-04T11:41:07.437Z,63.76
2022-10-04T11:46:24.711Z,63.40
2022-10-04T11:51:48.858Z,63.72
2022-10-04T11:57:27.815Z,62.67
2022-10-04T12:03:11.131Z,62.25
2022-10-04T12:08:29.081Z,63.11
2022-10-04T12:13:55.437Z,62.55
2022-10-04T12:19:22.094Z,63.52
2022-10-04T12:24:47.838Z,63.47
2022-10-04T12:30:28.225Z,63.09
2022-10-04T12:35:42.497Z,62.90
2022-10-04T12:40:54.104Z,62.98
2022-10-04T12:46:19.251Z,64.89
2022-10-04T12:51:39.811Z,63.33
2022-10-04T12:56:53.997Z,62.67
2022-10-04T13:02:14.252Z,62.28
2022-10-04T13:07:43.862Z,64.01
2022-10-04T13:13:08.983Z,63.09
2022-10-04T13:18:17.947Z,61.97
2022-10-04T13:23:40.869Z,61.60
2022-10-04T13:28:52.395Z,62.59
2022-10-04T13:34:25.526Z,60.17
2022-10-04T13:39:58.418Z,61.04
2022-10-04T13:45:26.305Z,61.80
2022-10-04T13:50:34.731Z,61.51
2022-10-04T13:56:03.840Z,61.35
2022-10-04T14:01:32.559Z,60.34
2022-10-04T14:06:52.439Z,59.64
2022-10-04T14:12:34.407Z,59.48
2022-10-04T14:17:48.621Z,60.45
2022-10-04T14:23:23.462Z,60.82
2022-10-04T14:28:52.875Z,60.88
2022-10-04T14:34:16.130Z,61.05
2022-10-04T14:39:42.852Z,60.47
2022-10-04T14:44:55.969Z,60.59
2022-10-04T14:50:07.140Z,59.97
2022-10-04T14:55:32.674Z,59.45
2022-10-04T15:00:57.909Z,59.79
2022-10-04T15:06:12.642Z,59.63
2022-10-04T15:11:39.966Z,59.46
2022-10-04T15:17:00.347Z,59.87
2022-10-04T15:22:15.911Z,60.08
2022-10-04T15:27:47.324Z,60.33
2022-10-04T15:33:12.344Z,60.84
2022-10-04T15:38:37.348Z,61.21
2022-10-04T15:43:51.757Z,61.42
2022-10-04T15:49:23.467Z,61.38
2022-10-04T15:54:50.043Z,61.30
2022-10-04T16:00:22.531Z,61.31
2022-10-04T16:05:40.118Z,61.04
2022-10-04T16:11:14.350Z,60.83
2022-10-04T16:16:26.002Z,60.80
2022-10-04T16:21:52.582Z,60.76
2022-10-04T16:27:05.005Z,61.03
2022-10-04T16:32:22.549Z,61.03
2022-10-04T16:37:49.248Z,61.29
2022-10-04T16:43:02.269Z,61.50
2022-10-04T16:48:39.687Z,61.89
2022-10-04T16:53:53.837Z,62.30
2022-10-04T16:59:05.139Z,62.67
2022-10-04T17:04:35.915Z,63.01
2022-10-04T17:10:08.700Z,63.37
2022-10-04T17:15:36.505Z,63.82
2022-10-04T17:20:55.508Z,64.22
2022-10-04T17:26:19.049Z,64.63
2022-10-04T17:31:42.739Z,64.99
2022-10-04T17:36:51.776Z,65.28
2022-10-04T17:42:01.285Z,65.67
2022-10-04T17:47:18.103Z,65.79
2022-10-04T17:52:51.864Z,66.13
2022-10-04T17:58:15.599Z,66.41
2022-10-04T18:03:45.324Z,66.67
2022-10-04T18:09:05.754Z,67.25
2022-10-04T18:14:39.854Z,67.55
2022-10-04T18:19:51.607Z,67.55
2022-10-04T18:25:19.842Z,67.95
2022-10-04T18:30:27.592Z,68.14
2022-10-04T18:35:37.442Z,68.43
2022-10-04T18:40:48.909Z,68.58
2022-10-04T18:52:11.157Z,69.01
2022-10-04T18:57:38.323Z,69.29
2022-10-04T19:03:11.698Z,69.50
2022-10-04T19:08:34.237Z,69.47
2022-10-04T19:13:46.959Z,69.59
2022-10-04T19:18:59.934Z,69.72
2022-10-04T19:24:17.346Z,69.83
2022-10-04T19:29:28.613Z,69.93
2022-10-04T19:34:56.422Z,69.96
2022-10-04T19:40:11.060Z,70.06
2022-10-04T19:45:53.165Z,70.19
2022-10-04T19:51:04.808Z,70.32
2022-10-04T19:56:22.589Z,70.38
2022-10-04T20:01:29.962Z,70.59
2022-10-04T20:06:37.294Z,70.64
2022-10-04T20:11:49.625Z,70.78
2022-10-04T20:16:58.206Z,70.79
2022-10-04T20:22:17.036Z,70.72
2022-10-04T20:27:28.792Z,70.74
2022-10-04T20:32:40.578Z,70.79
2022-10-04T20:38:27.306Z,70.64
2022-10-04T20:43:18.463Z,70.82
2022-10-04T20:48:29.710Z,70.77
2022-10-04T20:53:35.397Z,70.73
2022-10-04T20:58:41.493Z,70.87
2022-10-04T21:03:47.847Z,70.90
2022-10-04T21:08:53.366Z,70.87
2022-10-04T21:14:01.212Z,70.64
2022-10-04T21:19:31.331Z,70.92
2022-10-04T21:24:44.845Z,71.07
2022-10-04T21:29:50.301Z,71.11
2022-10-04T21:34:55.844Z,70.96
2022-10-04T21:40:01.413Z,70.96
2022-10-04T21:45:07.516Z,71.00
2022-10-04T21:50:13.567Z,71.12
2022-10-04T21:55:19.195Z,71.18
2022-10-04T22:00:25.631Z,70.77
2022-10-04T22:05:31.423Z,70.59
2022-10-04T22:10:36.940Z,70.44
2022-10-04T22:15:42.622Z,70.33
2022-10-04T22:20:48.075Z,70.13
2022-10-04T22:25:54.617Z,69.99
2022-10-04T22:30:59.995Z,69.80
2022-10-04T22:36:34.227Z,69.67
2022-10-04T22:41:48.192Z,69.65
2022-10-04T22:46:56.381Z,69.44
2022-10-04T22:52:05.108Z,69.60
2022-10-04T22:57:14.388Z,69.45
2022-10-04T23:02:29.197Z,69.39
2022-10-04T23:07:38.167Z,69.22
2022-10-04T23:12:43.426Z,69.19
2022-10-04T23:17:56.025Z,69.12
2022-10-04T23:23:01.672Z,69.15
2022-10-04T23:28:11.343Z,69.02
2022-10-04T23:33:22.817Z,69.18
2022-10-04T23:38:30.621Z,69.19
2022-10-04T23:43:36.573Z,69.23
2022-10-04T23:48:42.958Z,69.34
2022-10-04T23:53:51.696Z,69.28
2022-10-04T23:58:59.720Z,69.40
